Time;durP1;ratioP1;P1;durP2;ratioP2;P2;SDS_P1;SDS_P2;PMS_P1;PMS_P2;Temp;Humidity;BMP_temperature;BMP_pressure;BME280_temperature;BME280_humidity;BME280_pressure;Samples;Min_cycle;Max_cycle;Signal;HPM_P1;HPM_P2
2021/04/26 00:01:23;;;;;;;3.40;2.87;;;;;;;15.25;51.77;99780.91;1747205;80;21711;-68
2021/04/26 00:03:53;;;;;;;2.95;2.60;;;;;;;15.23;51.74;99781.09;1743535;80;21154;-68
2021/04/26 00:06:21;;;;;;;3.42;2.47;;;;;;;15.23;51.73;99790.98;1751161;78;21166;-68
2021/04/26 00:08:50;;;;;;;3.08;2.50;;;;;;;15.23;51.75;99786.97;1740236;80;21159;-69
2021/04/26 00:11:18;;;;;;;3.65;2.40;;;;;;;15.22;51.70;99789.31;1751836;78;21177;-69
2021/04/26 00:13:46;;;;;;;2.92;2.62;;;;;;;15.21;51.69;99795.71;1764156;78;21182;-69
2021/04/26 00:16:14;;;;;;;2.58;2.30;;;;;;;15.20;51.70;99800.24;1767564;78;21207;-69
2021/04/26 00:18:43;;;;;;;2.83;2.50;;;;;;;15.20;51.73;99799.39;1755823;78;21213;-68
2021/04/26 00:21:10;;;;;;;3.47;2.45;;;;;;;15.19;51.71;99796.42;1774939;78;21103;-68
2021/04/26 00:23:38;;;;;;;2.60;2.37;;;;;;;15.18;51.69;99791.55;1763432;80;21158;-67
2021/04/26 00:26:05;;;;;;;3.17;2.50;;;;;;;15.18;51.65;99787.55;1752487;80;21170;-68
2021/04/26 00:28:34;;;;;;;3.05;2.45;;;;;;;15.18;51.68;99789.41;1745520;80;21150;-68
2021/04/26 00:31:02;;;;;;;2.75;2.40;;;;;;;15.16;51.67;99781.56;1745831;78;21162;-68
2021/04/26 00:33:31;;;;;;;2.58;1.98;;;;;;;15.15;51.66;99777.25;1770929;78;21196;-69
2021/04/26 00:35:59;;;;;;;2.65;2.30;;;;;;;15.14;51.66;99773.77;1776733;78;21168;-67
2021/04/26 00:38:26;;;;;;;2.52;2.02;;;;;;;15.13;51.65;99779.30;1777456;78;21109;-68
2021/04/26 00:40:56;;;;;;;3.37;2.10;;;;;;;15.13;51.65;99780.12;1782752;78;21170;-68
2021/04/26 00:43:23;;;;;;;2.40;2.20;;;;;;;15.11;51.65;99782.17;1780601;78;21621;-68
2021/04/26 00:45:51;;;;;;;3.35;2.37;;;;;;;15.11;51.64;99781.34;1778185;78;21227;-69
2021/04/26 00:48:20;;;;;;;2.70;2.20;;;;;;;15.10;51.64;99766.30;1785882;78;21109;-68
2021/04/26 00:53:13;;;;;;;2.52;1.95;;;;;;;15.13;51.64;99765.92;1826378;77;28205;-69
2021/04/26 00:55:40;;;;;;;2.25;2.00;;;;;;;15.07;51.68;99762.18;1823597;77;21064;-69
2021/04/26 00:58:09;;;;;;;2.08;1.70;;;;;;;15.06;51.65;99753.83;1810549;78;21346;-71
2021/04/26 01:00:37;;;;;;;2.72;2.10;;;;;;;15.06;51.65;99754.34;1808470;78;21171;-71
2021/04/26 01:03:04;;;;;;;2.40;2.08;;;;;;;15.04;51.64;99753.20;1831810;78;21122;-70
2021/04/26 01:05:34;;;;;;;2.17;1.95;;;;;;;15.03;51.64;99747.55;1822896;78;21111;-70
2021/04/26 01:08:04;;;;;;;2.00;1.77;;;;;;;15.03;51.62;99744.88;1827991;78;21833;-70
2021/04/26 01:10:53;;;;;;;2.83;1.92;;;;;;;15.02;51.62;99737.04;1833154;78;21267;-71
2021/04/26 01:14:01;;;;;;;2.05;1.85;;;;;;;15.00;51.62;99733.22;1798567;78;21181;-70
2021/04/26 01:16:37;;;;;;;2.25;1.77;;;;;;;14.99;51.65;99739.61;1816330;78;21626;-69
2021/04/26 01:19:13;;;;;;;2.67;1.90;;;;;;;14.96;51.67;99740.51;1825195;78;21178;-70
2021/04/26 01:22:08;;;;;;;2.00;1.62;;;;;;;14.93;51.73;99742.55;1808241;78;21118;-69
2021/04/26 01:25:08;;;;;;;2.33;1.77;;;;;;;14.93;51.72;99744.38;1825757;78;22034;-69
2021/04/26 01:28:33;;;;;;;2.35;1.62;;;;;;;14.90;51.74;99736.77;1801206;78;21123;-70
2021/04/26 01:31:11;;;;;;;2.63;1.80;;;;;;;14.86;51.76;99732.32;1825119;78;21111;-70
2021/04/26 01:33:47;;;;;;;2.22;2.02;;;;;;;14.82;51.80;99727.05;1815365;78;21145;-70
2021/04/26 01:36:19;;;;;;;2.15;1.70;;;;;;;14.80;51.87;99720.26;1813299;78;21641;-69
2021/04/26 01:38:52;;;;;;;2.10;1.75;;;;;;;14.79;51.90;99710.05;1784145;78;21414;-71
2021/04/26 01:41:22;;;;;;;2.52;2.00;;;;;;;14.79;51.89;99726.61;1832496;78;21153;-69
2021/04/26 01:43:50;;;;;;;2.80;1.80;;;;;;;14.77;51.89;99723.31;1773003;79;21173;-70
2021/04/26 01:46:19;;;;;;;2.45;1.80;;;;;;;14.78;51.89;99727.66;1801275;78;21142;-69
2021/04/26 01:48:49;;;;;;;2.12;1.57;;;;;;;14.78;51.88;99738.34;1800525;78;21206;-69
2021/04/26 01:51:17;;;;;;;2.10;1.80;;;;;;;14.77;51.89;99738.84;1820150;78;21373;-69
2021/04/26 01:53:46;;;;;;;2.00;1.60;;;;;;;14.78;51.88;99728.98;1801575;78;21218;-70
2021/04/26 01:56:16;;;;;;;1.77;1.67;;;;;;;14.77;51.87;99723.31;1802372;78;21562;-69
2021/04/26 01:58:54;;;;;;;2.10;1.70;;;;;;;14.79;51.88;99715.39;1822447;77;28609;-69
2021/04/26 02:01:23;;;;;;;2.05;1.60;;;;;;;14.75;51.84;99710.95;1779971;77;21134;-69
2021/04/26 02:03:57;;;;;;;2.08;1.50;;;;;;;14.75;51.87;99700.77;1793012;77;22210;-69
2021/04/26 02:06:44;;;;;;;2.95;2.35;;;;;;;14.74;51.85;99706.64;1773487;77;21174;-69
2021/04/26 02:09:32;;;;;;;1.70;1.50;;;;;;;14.74;51.89;99707.16;1784963;77;21095;-70
2021/04/26 02:12:10;;;;;;;1.95;1.60;;;;;;;14.73;51.89;99714.84;1777664;79;21182;-70
2021/04/26 02:14:40;;;;;;;2.33;1.60;;;;;;;14.71;51.89;99711.02;1789170;80;21072;-69
2021/04/26 02:17:08;;;;;;;1.45;1.30;;;;;;;14.70;51.89;99707.23;1813703;78;21361;-68
2021/04/26 02:19:37;;;;;;;1.67;1.50;;;;;;;14.70;51.87;99714.73;1797548;79;21039;-68
2021/04/26 02:22:07;;;;;;;1.75;1.60;;;;;;;14.69;51.91;99712.25;1812923;79;21243;-68
2021/04/26 02:24:36;;;;;;;1.70;1.50;;;;;;;14.68;51.86;99711.44;1790396;78;21145;-69
2021/04/26 02:27:05;;;;;;;1.77;1.65;;;;;;;14.68;51.85;99706.09;1786135;79;21157;-68
2021/04/26 02:29:32;;;;;;;1.87;1.22;;;;;;;14.68;51.88;99690.53;1798118;78;22246;-69
2021/04/26 02:32:04;;;;;;;1.22;1.12;;;;;;;14.68;51.85;99685.19;1795233;78;21196;-68
2021/04/26 02:34:37;;;;;;;2.05;1.45;;;;;;;14.68;51.84;99682.03;1780694;78;21134;-70
2021/04/26 02:37:13;;;;;;;1.70;1.27;;;;;;;14.67;51.85;99668.84;1791766;78;21172;-70
2021/04/26 02:39:41;;;;;;;1.62;1.47;;;;;;;14.66;51.86;99674.71;1786581;78;21180;-71
2021/04/26 02:42:09;;;;;;;1.92;1.60;;;;;;;14.66;51.85;99669.86;1804025;78;21196;-69
2021/04/26 02:44:38;;;;;;;1.62;1.52;;;;;;;14.65;51.88;99665.55;1820245;78;21201;-70
2021/04/26 02:47:10;;;;;;;1.72;1.47;;;;;;;14.64;51.87;99654.03;1804344;78;21407;-69
2021/04/26 02:49:40;;;;;;;1.60;1.50;;;;;;;14.64;51.85;99653.19;1788069;79;21181;-69
2021/04/26 02:52:10;;;;;;;1.77;1.47;;;;;;;14.64;51.88;99666.55;1794431;79;21155;-69
2021/04/26 02:54:41;;;;;;;1.92;1.65;;;;;;;14.62;51.89;99660.58;1795975;78;21177;-69
2021/04/26 02:57:08;;;;;;;1.72;1.37;;;;;;;14.62;51.88;99648.55;1774272;78;21230;-69
2021/04/26 02:59:37;;;;;;;1.85;1.27;;;;;;;14.61;51.87;99631.69;1796672;79;21167;-70
2021/04/26 03:02:05;;;;;;;1.55;1.30;;;;;;;14.61;51.90;99620.18;1793846;78;21154;-69
2021/04/26 03:04:55;;;;;;;1.80;1.50;;;;;;;14.63;51.87;99618.95;1824563;77;28212;-68
2021/04/26 03:07:22;;;;;;;2.10;1.37;;;;;;;14.59;51.88;99635.08;1789658;77;21106;-69
2021/04/26 03:10:11;;;;;;;2.37;1.80;;;;;;;14.61;51.89;99627.68;1844535;77;28211;-69
2021/04/26 03:12:42;;;;;;;2.80;1.50;;;;;;;14.58;51.89;99624.05;1835001;77;20977;-69
2021/04/26 03:15:14;;;;;;;2.00;1.80;;;;;;;14.58;51.91;99623.23;1782373;79;21388;-68
2021/04/26 03:17:42;;;;;;;1.90;1.37;;;;;;;14.56;51.90;99620.72;1799365;78;21607;-69
2021/04/26 03:20:13;;;;;;;2.60;1.70;;;;;;;14.56;51.91;99630.08;1823679;78;21167;-69
2021/04/26 03:22:44;;;;;;;1.90;1.70;;;;;;;14.56;51.91;99638.09;1811827;78;21138;-69
2021/04/26 03:25:12;;;;;;;2.75;1.67;;;;;;;14.55;51.88;99643.96;1808211;78;21093;-71
2021/04/26 03:27:42;;;;;;;2.17;1.50;;;;;;;14.55;51.92;99648.49;1812759;78;21335;-70
2021/04/26 03:30:12;;;;;;;3.00;1.50;;;;;;;14.55;51.92;99643.14;1820938;78;21147;-70
2021/04/26 03:32:42;;;;;;;1.90;1.70;;;;;;;14.55;51.94;99645.82;1827923;77;21563;-70
2021/04/26 03:35:12;;;;;;;2.37;1.87;;;;;;;14.54;51.93;99645.48;1842083;77;21167;-72
2021/04/26 03:37:44;;;;;;;2.15;1.50;;;;;;;14.54;51.88;99645.48;1836730;77;21138;-70
2021/04/26 03:40:23;;;;;;;2.77;1.80;;;;;;;14.53;51.93;99642.52;1785776;78;21588;-71
2021/04/26 03:42:59;;;;;;;1.60;1.32;;;;;;;14.52;51.94;99640.85;1830817;77;21147;-70
2021/04/26 03:45:29;;;;;;;2.30;1.52;;;;;;;14.49;51.95;99640.74;1833483;78;21158;-69
2021/04/26 03:48:15;;;;;;;3.00;2.05;;;;;;;14.49;51.96;99643.94;1819340;78;21441;-69
2021/04/26 03:51:11;;;;;;;2.27;1.60;;;;;;;14.51;52.02;99649.91;1856767;76;28157;-70
2021/04/26 03:53:57;;;;;;;2.92;1.37;;;;;;;14.46;52.00;99651.81;1846561;77;21113;-69
2021/04/26 03:56:40;;;;;;;2.37;1.87;;;;;;;14.44;52.02;99655.71;1823721;77;21359;-70
2021/04/26 03:59:09;;;;;;;1.67;1.45;;;;;;;14.44;52.04;99655.71;1836267;77;21132;-69
2021/04/26 04:01:38;;;;;;;2.10;1.50;;;;;;;14.43;52.06;99668.26;1826095;77;21148;-69
2021/04/26 04:04:06;;;;;;;1.77;1.40;;;;;;;14.44;52.06;99669.08;1834733;77;21212;-69
2021/04/26 04:06:43;;;;;;;1.62;1.35;;;;;;;14.47;52.05;99659.34;1786495;79;28748;-69
2021/04/26 04:09:18;;;;;;;1.80;1.40;;;;;;;14.43;52.06;99659.39;1703937;79;21123;-69
2021/04/26 04:12:05;;;;;;;2.72;1.45;;;;;;;14.46;52.06;99662.50;1797959;79;28243;-69
2021/04/26 04:14:34;;;;;;;2.30;1.65;;;;;;;14.43;52.06;99662.06;1773815;80;21140;-70
2021/04/26 04:17:05;;;;;;;1.80;1.32;;;;;;;14.42;52.06;99670.60;1766283;80;22843;-68
2021/04/26 04:19:33;;;;;;;2.27;1.60;;;;;;;14.42;52.09;99667.92;1767700;80;21671;-70
2021/04/26 04:22:00;;;;;;;2.25;1.57;;;;;;;14.42;52.11;99669.27;1763050;80;21638;-69
2021/04/26 04:24:30;;;;;;;1.30;1.20;;;;;;;14.42;52.08;99665.77;1757193;80;21156;-70
2021/04/26 04:26:57;;;;;;;5.22;2.22;;;;;;;14.42;52.04;99663.10;1777123;79;21587;-70
2021/04/26 04:29:25;;;;;;;1.82;1.30;;;;;;;14.43;52.07;99656.72;1801082;79;21269;-69
2021/04/26 04:32:04;;;;;;;2.40;1.65;;;;;;;14.46;52.09;99653.15;1771392;80;28183;-69
2021/04/26 04:34:51;;;;;;;2.10;1.52;;;;;;;14.43;52.08;99648.70;1818136;78;21095;-69
2021/04/26 04:37:36;;;;;;;2.55;1.70;;;;;;;14.42;52.12;99664.44;1803280;78;22301;-69
2021/04/26 04:40:22;;;;;;;1.42;1.20;;;;;;;14.41;52.10;99662.77;1745592;81;21185;-68
2021/04/26 04:43:08;;;;;;;1.30;1.20;;;;;;;14.39;52.11;99666.15;1742470;81;21247;-70
2021/04/26 04:45:40;;;;;;;2.17;1.40;;;;;;;14.38;52.11;99667.19;1751728;81;21211;-69
2021/04/26 04:48:15;;;;;;;2.92;1.45;;;;;;;14.38;52.14;99663.18;1739104;81;21503;-69
2021/04/26 04:50:45;;;;;;;2.02;1.70;;;;;;;14.37;52.14;99663.70;1741160;81;21312;-69
2021/04/26 04:53:13;;;;;;;1.55;1.42;;;;;;;14.36;52.14;99664.19;1751958;81;21025;-69
2021/04/26 04:55:40;;;;;;;2.12;1.50;;;;;;;14.38;52.13;99675.20;1752298;81;21628;-71
2021/04/26 04:58:08;;;;;;;2.22;1.52;;;;;;;14.37;52.10;99677.06;1749318;81;21225;-69
2021/04/26 05:00:36;;;;;;;1.82;1.37;;;;;;;14.39;52.05;99683.52;1752969;81;21151;-70
2021/04/26 05:03:23;;;;;;;1.20;1.10;;;;;;;14.40;52.09;99678.51;1753312;81;21403;-69
2021/04/26 05:06:09;;;;;;;2.72;1.50;;;;;;;14.39;52.04;99667.48;1771364;80;21272;-68
2021/04/26 05:08:56;;;;;;;1.27;1.10;;;;;;;14.37;52.11;99665.03;1731571;81;21191;-68
2021/04/26 05:11:46;;;;;;;1.50;1.30;;;;;;;14.42;52.07;99663.10;1818039;77;28608;-69
2021/04/26 05:14:19;;;;;;;2.02;1.20;;;;;;;14.38;52.04;99672.53;1766964;79;21214;-69
2021/04/26 05:16:46;;;;;;;2.20;1.47;;;;;;;14.36;52.06;99661.52;1794287;79;21191;-69
2021/04/26 05:19:13;;;;;;;1.37;1.25;;;;;;;14.36;52.02;99664.19;1791994;79;21642;-69
2021/04/26 05:21:42;;;;;;;1.50;1.40;;;;;;;14.39;52.00;99666.15;1790635;79;21344;-70
2021/04/26 05:24:10;;;;;;;1.40;1.20;;;;;;;14.38;52.00;99672.53;1799028;79;21193;-69
2021/04/26 05:26:38;;;;;;;1.55;1.30;;;;;;;14.39;51.99;99670.16;1777117;79;21164;-69
2021/04/26 05:29:07;;;;;;;2.10;1.25;;;;;;;14.39;51.98;99672.34;1804103;77;21196;-68
2021/04/26 05:31:36;;;;;;;1.40;1.10;;;;;;;14.40;51.99;99671.83;1777996;79;21141;-70
2021/04/26 05:34:04;;;;;;;2.02;1.65;;;;;;;14.41;51.96;99673.46;1794415;79;21575;-70
2021/04/26 05:36:41;;;;;;;2.77;1.47;;;;;;;14.45;51.94;99670.74;1845258;76;28290;-69
2021/04/26 05:39:08;;;;;;;1.50;1.37;;;;;;;14.41;51.95;99682.33;1805536;77;21168;-70
2021/04/26 05:41:37;;;;;;;1.50;1.37;;;;;;;14.41;51.89;99678.31;1842826;77;22081;-69
2021/04/26 05:44:07;;;;;;;1.82;1.40;;;;;;;14.42;51.88;99674.61;1851244;77;21385;-70
2021/04/26 05:46:36;;;;;;;3.00;1.40;;;;;;;14.42;51.90;99678.62;1794306;78;21143;-70
2021/04/26 05:49:04;;;;;;;1.50;1.30;;;;;;;14.43;51.84;99670.08;1842951;75;21139;-69
2021/04/26 05:51:32;;;;;;;1.95;1.32;;;;;;;14.44;51.86;99669.08;1815116;76;20996;-70
2021/04/26 05:53:59;;;;;;;2.00;1.57;;;;;;;14.46;51.80;99669.70;1800747;77;21657;-70
2021/04/26 05:56:27;;;;;;;1.90;1.47;;;;;;;14.46;51.77;99662.50;1824314;76;21186;-71
2021/04/26 05:58:54;;;;;;;1.50;1.20;;;;;;;14.49;51.72;99669.33;1810354;78;21186;-69
2021/04/26 06:01:22;;;;;;;1.60;1.12;;;;;;;14.50;51.74;99665.09;1823434;78;21596;-69
2021/04/26 06:03:49;;;;;;;1.27;1.12;;;;;;;14.54;51.71;99661.53;1816945;76;21459;-68
2021/04/26 06:06:17;;;;;;;2.40;1.52;;;;;;;14.55;51.66;99664.01;1808984;76;21352;-69
2021/04/26 06:08:45;;;;;;;1.35;1.20;;;;;;;14.57;51.66;99655.83;1813493;76;21447;-69
2021/04/26 06:11:13;;;;;;;2.12;1.52;;;;;;;14.60;51.60;99654.08;1820788;76;21631;-68
2021/04/26 06:13:42;;;;;;;1.85;1.47;;;;;;;14.61;51.57;99653.08;1815179;76;21184;-67
2021/04/26 06:16:09;;;;;;;1.15;1.05;;;;;;;14.63;51.54;99660.39;1797610;76;21146;-69
2021/04/26 06:18:39;;;;;;;1.50;1.40;;;;;;;14.65;51.50;99663.69;1823927;77;21155;-68
2021/04/26 06:21:06;;;;;;;1.70;1.60;;;;;;;14.66;51.44;99654.66;1815114;77;21158;-68
2021/04/26 06:23:33;;;;;;;2.05;1.62;;;;;;;14.68;51.40;99665.13;1844166;75;21133;-69
2021/04/26 06:26:01;;;;;;;2.15;1.80;;;;;;;14.71;51.38;99664.23;1831616;77;21128;-69
2021/04/26 06:28:28;;;;;;;2.83;1.75;;;;;;;14.74;52.40;99629.09;1844472;77;21159;-67
2021/04/26 06:30:56;;;;;;;2.65;2.02;;;;;;;14.84;54.77;99662.67;1847116;77;21521;-66
2021/04/26 06:33:23;;;;;;;5.28;2.47;;;;;;;14.94;55.01;99658.59;1860579;76;21367;-68
2021/04/26 06:35:52;;;;;;;2.92;2.00;;;;;;;15.03;55.62;99656.59;1844333;77;21127;-67
2021/04/26 06:38:20;;;;;;;2.72;2.15;;;;;;;15.09;55.72;99656.31;1780251;78;21242;-68
2021/04/26 06:40:48;;;;;;;3.70;2.33;;;;;;;15.13;55.63;99657.04;1803598;76;21149;-68
2021/04/26 06:43:16;;;;;;;2.85;2.22;;;;;;;15.18;55.55;99660.44;1810738;76;22122;-66
2021/04/26 06:45:43;;;;;;;3.05;2.17;;;;;;;15.22;55.32;99655.03;1811976;76;21825;-65
2021/04/26 06:48:15;;;;;;;2.40;2.05;;;;;;;15.26;55.08;99654.09;1823296;78;21094;-68
2021/04/26 06:50:43;;;;;;;3.25;1.90;;;;;;;15.28;54.82;99652.88;1823627;78;21145;-70
2021/04/26 06:53:11;;;;;;;3.20;2.37;;;;;;;15.32;54.65;99626.55;1807450;78;21129;-66
2021/04/26 06:55:38;;;;;;;3.83;2.47;;;;;;;15.36;55.12;99653.73;1805814;77;21363;-67
2021/04/26 06:58:06;;;;;;;3.10;2.47;;;;;;;15.41;55.34;99646.72;1821579;76;21184;-67
2021/04/26 07:00:34;;;;;;;3.42;2.40;;;;;;;15.45;55.72;99642.64;1813225;76;21189;-65
2021/04/26 07:03:03;;;;;;;4.22;2.37;;;;;;;15.50;55.75;99646.04;1827214;78;21165;-68
2021/04/26 07:05:30;;;;;;;4.92;2.47;;;;;;;15.54;55.67;99647.28;1833927;76;21138;-67
2021/04/26 07:07:59;;;;;;;3.95;2.58;;;;;;;15.57;55.50;99646.04;1830279;77;22155;-66
2021/04/26 07:10:28;;;;;;;4.87;2.60;;;;;;;15.59;55.29;99642.64;1823892;76;21146;-67
2021/04/26 07:12:56;;;;;;;2.90;2.42;;;;;;;15.61;55.10;99636.59;1818625;77;21155;-65
2021/04/26 07:15:24;;;;;;;4.30;2.77;;;;;;;15.63;54.89;99632.68;1823721;76;21134;-67
2021/04/26 07:17:51;;;;;;;3.52;2.40;;;;;;;15.65;54.67;99626.61;1788667;76;21103;-65
2021/04/26 07:20:19;;;;;;;3.90;2.42;;;;;;;15.68;54.47;99626.70;1825643;77;21360;-65
2021/04/26 07:22:47;;;;;;;2.87;2.58;;;;;;;15.71;54.28;99627.64;1828091;77;21198;-65
2021/04/26 07:25:15;;;;;;;5.25;2.80;;;;;;;15.74;54.11;99621.89;1833532;76;21559;-66
2021/04/26 07:27:42;;;;;;;4.15;2.67;;;;;;;15.76;53.98;99625.22;1814537;76;21190;-66
2021/04/26 07:30:11;;;;;;;3.75;2.47;;;;;;;15.79;53.81;99638.70;1817201;76;21211;-68
2021/04/26 07:32:38;;;;;;;4.35;2.37;;;;;;;15.79;53.60;99631.48;1805198;76;21365;-67
2021/04/26 07:35:07;;;;;;;4.20;2.70;;;;;;;15.81;53.46;99628.61;1830263;76;21238;-68
2021/04/26 07:37:37;;;;;;;3.30;1.90;;;;;;;15.82;53.33;99634.27;1812044;78;21652;-66
2021/04/26 07:40:07;;;;;;;2.92;2.33;;;;;;;15.82;53.12;99643.14;1820580;77;21642;-67
2021/04/26 07:42:34;;;;;;;3.15;2.22;;;;;;;15.83;52.96;99643.44;1833410;77;21583;-66
2021/04/26 07:45:04;;;;;;;5.67;2.50;;;;;;;15.83;52.81;99646.64;1784025;78;21315;-66
2021/04/26 07:47:31;;;;;;;3.58;2.65;;;;;;;15.84;52.66;99636.22;1846561;75;21579;-65
2021/04/26 07:49:59;;;;;;;3.42;2.37;;;;;;;15.85;52.54;99644.58;1838458;76;21107;-66
2021/04/26 07:52:28;;;;;;;4.03;2.30;;;;;;;15.85;52.43;99641.90;1806903;77;21150;-65
2021/04/26 07:54:56;;;;;;;3.85;2.10;;;;;;;15.85;52.31;99647.26;1807095;77;21141;-64
2021/04/26 07:57:25;;;;;;;2.75;2.05;;;;;;;15.86;52.21;99646.24;1810709;78;21300;-65
2021/04/26 07:59:53;;;;;;;2.95;2.22;;;;;;;15.87;52.12;99642.52;1823640;78;21105;-66
2021/04/26 08:02:20;;;;;;;3.00;2.08;;;;;;;15.89;52.01;99643.13;1818991;76;21153;-66
2021/04/26 08:04:48;;;;;;;3.37;2.27;;;;;;;15.89;51.95;99643.13;1804220;76;21155;-64
2021/04/26 08:07:15;;;;;;;3.08;2.15;;;;;;;15.90;51.86;99648.30;1812625;76;21105;-68
2021/04/26 08:09:42;;;;;;;2.55;2.15;;;;;;;15.91;51.79;99639.21;1815057;76;21726;-68
2021/04/26 08:12:11;;;;;;;2.47;1.80;;;;;;;15.93;51.73;99649.73;1804627;78;21145;-67
2021/04/26 08:14:38;;;;;;;4.08;2.00;;;;;;;15.94;51.66;99649.23;1811759;78;21166;-67
2021/04/26 08:17:05;;;;;;;3.42;2.45;;;;;;;15.95;51.62;99644.98;1820663;77;21202;-66
2021/04/26 08:19:33;;;;;;;2.85;2.20;;;;;;;15.97;51.56;99646.12;1814993;76;21705;-67
2021/04/26 08:22:01;;;;;;;4.05;2.08;;;;;;;15.98;51.51;99638.41;1830491;77;21431;-67
2021/04/26 08:24:28;;;;;;;5.05;2.10;;;;;;;15.99;51.44;99637.37;1825150;76;21167;-66
2021/04/26 08:26:56;;;;;;;4.35;2.22;;;;;;;15.99;51.36;99640.05;1831549;76;21584;-67
2021/04/26 08:29:23;;;;;;;2.47;1.95;;;;;;;16.01;51.32;99639.33;1801371;78;22112;-69
2021/04/26 08:31:51;;;;;;;3.15;1.90;;;;;;;16.03;51.20;99638.60;1811055;76;21189;-67
2021/04/26 08:34:19;;;;;;;2.75;2.08;;;;;;;16.04;51.18;99637.06;1808468;78;21366;-68
2021/04/26 08:36:46;;;;;;;2.25;1.77;;;;;;;16.07;51.16;99636.66;1815200;78;21199;-69
2021/04/26 08:39:16;;;;;;;2.60;2.00;;;;;;;16.09;51.21;99638.62;1811565;77;21173;-69
2021/04/26 08:41:44;;;;;;;2.30;1.90;;;;;;;16.11;51.17;99637.89;1823420;78;21234;-69
2021/04/26 08:44:12;;;;;;;2.15;1.72;;;;;;;16.15;51.13;99638.31;1823276;77;21181;-68
2021/04/26 08:46:43;;;;;;;2.50;1.55;;;;;;;16.17;50.98;99636.24;1808581;76;21376;-69
2021/04/26 08:49:12;;;;;;;6.35;4.40;;;;;;;16.19;51.01;99638.72;1823533;78;21167;-69
2021/04/26 08:51:40;;;;;;;6.45;4.12;;;;;;;16.22;58.78;99578.80;1821685;77;21594;-68
2021/04/26 08:54:07;;;;;;;5.37;3.45;;;;;;;16.51;65.06;99590.08;1820717;77;21151;-69
2021/04/26 08:56:35;;;;;;;5.83;3.62;;;;;;;16.95;64.47;99642.70;1816881;78;21559;-68
2021/04/26 08:59:03;;;;;;;5.20;3.58;;;;;;;17.21;62.32;99643.09;1817559;78;21337;-68
2021/04/26 09:01:31;;;;;;;5.80;3.40;;;;;;;17.34;60.57;99640.34;1828536;77;21560;-68
2021/04/26 09:04:07;;;;;;;4.95;3.27;;;;;;;17.41;59.13;99645.17;1809341;78;21130;-68
2021/04/26 09:06:55;;;;;;;7.62;3.30;;;;;;;17.48;58.42;99637.06;1811150;78;21114;-69
2021/04/26 09:09:50;;;;;;;6.35;3.02;;;;;;;17.49;57.82;99642.23;1812361;77;21610;-70
2021/04/26 09:12:27;;;;;;;4.00;2.90;;;;;;;17.51;57.24;99647.91;1823185;77;21137;-68
2021/04/26 09:15:00;;;;;;;5.50;2.80;;;;;;;17.47;56.94;99646.17;1827835;78;21180;-69
2021/04/26 09:17:32;;;;;;;4.17;2.72;;;;;;;17.45;56.62;99646.91;1813998;78;21613;-70
2021/04/26 09:20:20;;;;;;;5.67;3.17;;;;;;;17.41;56.45;99643.83;1805726;77;21434;-70
2021/04/26 09:22:53;;;;;;;3.83;2.58;;;;;;;17.38;56.12;99648.27;1820085;78;21188;-69
2021/04/26 09:25:39;;;;;;;4.12;2.67;;;;;;;17.33;55.72;99651.33;1814740;77;22618;-72
2021/04/26 09:28:20;;;;;;;6.22;2.98;;;;;;;17.29;55.43;99653.09;1807674;78;21607;-71
2021/04/26 09:30:56;;;;;;;4.28;2.65;;;;;;;17.25;55.13;99649.72;1816432;78;21768;-72
2021/04/26 09:33:39;;;;;;;4.72;3.42;;;;;;;17.22;54.87;99648.26;1809942;77;21161;-70
2021/04/26 09:36:19;;;;;;;3.60;2.62;;;;;;;17.20;54.64;99650.86;1806545;78;21167;-71
2021/04/26 09:38:51;;;;;;;3.47;2.25;;;;;;;17.17;54.45;99645.41;1802914;78;21383;-70
2021/04/26 09:41:33;;;;;;;3.92;2.50;;;;;;;17.16;54.13;99649.13;1815606;78;21113;-70
2021/04/26 09:44:09;;;;;;;4.00;2.70;;;;;;;17.15;53.93;99644.77;1816190;78;21121;-71
2021/04/26 09:46:49;;;;;;;3.05;2.30;;;;;;;17.13;53.74;99651.41;1818377;78;21164;-69
2021/04/26 09:49:23;;;;;;;3.58;2.55;;;;;;;17.12;53.53;99645.75;1807340;78;21108;-69
2021/04/26 09:51:56;;;;;;;5.45;2.90;;;;;;;17.10;53.37;99646.77;1802789;78;21667;-71
2021/04/26 09:54:43;;;;;;;3.67;2.40;;;;;;;17.09;53.17;99653.19;1814982;78;21177;-70
2021/04/26 09:57:11;;;;;;;2.67;2.20;;;;;;;17.07;53.00;99661.12;1809052;78;21161;-69
2021/04/26 09:59:39;;;;;;;4.20;2.58;;;;;;;17.07;52.84;99659.78;1812535;77;21620;-70
2021/04/26 10:02:09;;;;;;;3.10;2.52;;;;;;;17.07;52.60;99654.41;1810383;78;21578;-72
2021/04/26 10:04:37;;;;;;;3.50;2.67;;;;;;;17.06;52.33;99648.23;1813074;78;21649;-70
2021/04/26 10:07:05;;;;;;;3.83;2.20;;;;;;;17.09;52.07;99650.50;1826313;78;21164;-70
2021/04/26 10:09:35;;;;;;;3.65;2.30;;;;;;;17.12;51.93;99649.25;1809814;78;21165;-69
2021/04/26 10:12:03;;;;;;;5.58;2.17;;;;;;;17.15;51.91;99643.44;1813819;78;21189;-69
2021/04/26 10:14:31;;;;;;;3.33;2.12;;;;;;;17.21;51.88;99642.60;1817725;78;21569;-71
2021/04/26 10:17:12;;;;;;;3.83;2.10;;;;;;;17.25;51.47;99645.69;1807950;78;21433;-73
2021/04/26 10:19:50;;;;;;;2.83;2.22;;;;;;;17.29;51.20;99652.27;1805722;77;21124;-72
2021/04/26 10:22:35;;;;;;;4.15;2.58;;;;;;;17.31;51.14;99642.14;1810785;78;21127;-72
2021/04/26 10:25:07;;;;;;;2.62;1.82;;;;;;;17.33;51.12;99637.91;1818649;77;21932;-71
2021/04/26 10:27:41;;;;;;;2.27;1.87;;;;;;;17.34;51.01;99644.91;1798001;77;21177;-72
2021/04/26 10:30:16;;;;;;;2.87;2.00;;;;;;;17.35;50.90;99645.22;1801544;78;21247;-71
2021/04/26 10:33:00;;;;;;;3.08;2.17;;;;;;;17.35;50.79;99654.62;1806405;78;21209;-70
2021/04/26 10:35:51;;;;;;;3.70;1.90;;;;;;;17.36;50.72;99650.88;1806502;78;21199;-72
2021/04/26 10:38:47;;;;;;;3.55;1.95;;;;;;;17.35;50.50;99655.44;1815913;77;21602;-72
2021/04/26 10:41:52;;;;;;;1.82;1.55;;;;;;;17.34;50.34;99656.98;1804773;78;21117;-70
2021/04/26 10:44:47;;;;;;;2.58;1.85;;;;;;;17.33;50.37;99656.17;1820167;78;22339;-70
2021/04/26 10:47:24;;;;;;;2.90;1.95;;;;;;;17.31;50.34;99651.53;1818857;77;21127;-70
2021/04/26 10:50:17;;;;;;;2.08;1.62;;;;;;;17.30;50.24;99650.69;1843833;77;21147;-71
2021/04/26 10:52:53;;;;;;;3.33;1.75;;;;;;;17.30;50.18;99652.56;1786052;78;21126;-70
2021/04/26 10:55:26;;;;;;;2.58;1.90;;;;;;;17.30;49.97;99651.22;1812421;77;21079;-70
2021/04/26 10:57:58;;;;;;;;;;;;;;;17.31;49.92;99651.53;1817718;77;23594;-70
2021/04/26 11:00:40;;;;;;;2.50;1.72;;;;;;;17.36;49.67;99653.56;1817921;78;20236;-70
2021/04/26 11:03:13;;;;;;;2.72;1.45;;;;;;;17.34;49.73;99650.27;1797729;78;21175;-71
2021/04/26 11:05:43;;;;;;;2.22;1.75;;;;;;;17.40;49.47;99648.91;1852001;77;21624;-70
2021/04/26 11:08:39;;;;;;;2.20;1.80;;;;;;;17.49;49.25;99644.91;1852047;77;21103;-69
2021/04/26 11:11:12;;;;;;;1.85;1.55;;;;;;;17.56;49.14;99644.05;1802963;77;21486;-70
2021/04/26 11:13:57;;;;;;;1.70;1.60;;;;;;;17.62;49.15;99649.39;1807080;78;21162;-70
2021/04/26 11:16:32;;;;;;;2.98;2.00;;;;;;;17.67;49.20;99646.05;1799173;78;21150;-71
2021/04/26 11:19:11;;;;;;;1.80;1.50;;;;;;;17.70;49.24;99656.37;1805827;76;21141;-70
2021/04/26 11:21:50;;;;;;;3.00;2.08;;;;;;;17.71;49.28;99652.63;1810074;76;21085;-70
2021/04/26 11:24:28;;;;;;;1.72;1.62;;;;;;;17.73;49.16;99651.07;1805714;78;21380;-72
2021/04/26 11:27:16;;;;;;;2.08;1.50;;;;;;;17.73;49.16;99659.98;1807345;78;21113;-70
2021/04/26 11:29:49;;;;;;;2.35;1.80;;;;;;;17.73;49.16;99655.95;1815888;78;21160;-70
2021/04/26 11:32:19;;;;;;;1.98;1.50;;;;;;;17.72;49.06;99658.31;1800037;78;21214;-70
2021/04/26 11:34:56;;;;;;;2.30;1.67;;;;;;;17.73;49.01;99660.47;1803100;78;21283;-69
2021/04/26 11:37:24;;;;;;;1.50;1.35;;;;;;;17.75;48.82;99665.95;1819521;78;21203;-70
2021/04/26 11:39:54;;;;;;;1.90;1.70;;;;;;;17.76;48.65;99664.08;1818846;78;21151;-70
2021/04/26 11:42:27;;;;;;;2.30;1.85;;;;;;;17.78;48.42;99660.13;1807446;78;21126;-70
2021/04/26 11:44:54;;;;;;;1.95;1.55;;;;;;;17.82;48.24;99661.86;1827533;78;21159;-70
2021/04/26 11:47:24;;;;;;;2.80;1.70;;;;;;;17.85;48.03;99655.57;1812480;78;21130;-71
2021/04/26 11:52:20;;;;;;;1.90;1.37;;;;;;;18.11;47.54;99646.99;1836874;76;28261;-71
2021/04/26 11:54:50;;;;;;;2.08;1.55;;;;;;;18.33;47.29;99639.87;1793390;78;21142;-70
2021/04/26 11:57:22;;;;;;;2.22;1.70;;;;;;;18.71;46.84;99635.66;1790163;78;22286;-70
2021/04/26 11:59:59;;;;;;;1.55;1.45;;;;;;;19.08;46.39;99632.97;1798025;78;21480;-71
2021/04/26 12:02:38;;;;;;;2.40;1.37;;;;;;;19.48;45.90;99627.59;1791801;78;21606;-70
2021/04/26 12:05:15;;;;;;;1.60;1.50;;;;;;;19.71;45.95;99620.91;1810499;78;21609;-70